Time;durP1;ratioP1;P1;durP2;ratioP2;P2;SDS_P1;SDS_P2;PMS_P1;PMS_P2;Temp;Humidity;BMP_temperature;BMP_pressure;BME280_temperature;BME280_humidity;BME280_pressure;Samples;Min_cycle;Max_cycle;Signal;HPM_P1;HPM_P2
2022/03/29 00:01:41;;;;;;;21.43;14.07;;;15.40;68.40;;;;;;5000157;28;20463;-83
2022/03/29 00:04:12;;;;;;;20.93;14.50;;;15.40;68.50;;;;;;4992768;28;20455;-83
2022/03/29 00:06:44;;;;;;;18.50;15.30;;;15.30;68.50;;;;;;5001807;28;20484;-85
2022/03/29 00:09:21;;;;;;;18.17;14.10;;;15.40;68.70;;;;;;4985832;28;20494;-84
2022/03/29 00:12:10;;;;;;;21.40;15.50;;;15.40;68.70;;;;;;4984985;28;20987;-84
2022/03/29 00:15:07;;;;;;;21.50;13.73;;;15.40;68.80;;;;;;4986762;28;21386;-82
2022/03/29 00:17:58;;;;;;;23.60;13.13;;;15.30;68.90;;;;;;4990295;28;20456;-85
2022/03/29 00:20:27;;;;;;;16.57;13.60;;;15.10;69.40;;;;;;4987832;28;20455;-85
2022/03/29 00:23:06;;;;;;;18.73;14.40;;;15.00;70.10;;;;;;4988965;28;20460;-83
2022/03/29 00:25:44;;;;;;;21.37;15.20;;;14.90;70.60;;;;;;4988980;28;20487;-85
2022/03/29 00:28:18;;;;;;;21.07;14.47;;;14.90;70.80;;;;;;4990366;28;20832;-86
2022/03/29 00:30:50;;;;;;;17.70;14.37;;;15.00;71.00;;;;;;5004025;28;20477;-84
2022/03/29 00:33:26;;;;;;;19.63;14.00;;;15.00;70.80;;;;;;5004049;28;20487;-83
2022/03/29 00:35:59;;;;;;;20.00;15.20;;;15.10;70.80;;;;;;4988269;28;20478;-86
2022/03/29 00:38:30;;;;;;;23.03;14.97;;;14.90;70.80;;;;;;4993998;28;20459;-82
2022/03/29 00:41:31;;;;;;;21.13;13.13;;;14.90;71.30;;;;;;4993532;28;20509;-84
2022/03/29 00:44:06;;;;;;;19.33;13.50;;;14.90;71.70;;;;;;4991868;28;20451;-82
2022/03/29 00:46:43;;;;;;;19.47;12.47;;;14.90;71.90;;;;;;4993947;28;20529;-84
2022/03/29 00:49:18;;;;;;;22.13;14.80;;;14.90;72.20;;;;;;5000182;28;20451;-84
2022/03/29 00:52:04;;;;;;;19.93;13.93;;;14.90;72.30;;;;;;4987718;28;20594;-83
2022/03/29 00:54:43;;;;;;;21.23;13.13;;;14.90;72.40;;;;;;5003995;28;21040;-86
2022/03/29 00:57:20;;;;;;;23.67;15.83;;;14.80;72.50;;;;;;4990076;28;21011;-85
2022/03/29 00:59:56;;;;;;;20.20;14.30;;;14.80;72.70;;;;;;4988158;28;20822;-83
2022/03/29 01:02:31;;;;;;;22.27;16.13;;;14.90;72.90;;;;;;4985796;28;20490;-83
2022/03/29 01:05:09;;;;;;;22.37;15.00;;;14.80;73.10;;;;;;4989894;28;20483;-86
2022/03/29 01:07:58;;;;;;;19.90;14.00;;;14.70;73.40;;;;;;5004357;28;21748;-83
2022/03/29 01:10:34;;;;;;;23.07;16.70;;;15.00;73.70;;;;;;4990415;28;20479;-85
2022/03/29 01:13:19;;;;;;;21.97;14.37;;;14.80;73.10;;;;;;4988296;28;20486;-84
2022/03/29 01:17:38;;;;;;;21.37;13.57;;;14.90;73.20;;;;;;5004040;28;20487;-84
2022/03/29 01:18:58;;;;;;;19.90;14.17;;;14.70;73.70;;;;;;4997102;28;20457;-83
2022/03/29 01:24:42;;;;;;;25.07;14.40;;;14.50;74.80;;;;;;4993421;28;20920;-87
2022/03/29 01:27:24;;;;;;;23.23;14.30;;;14.50;75.00;;;;;;5013797;28;20450;-84
2022/03/29 01:30:02;;;;;;;22.87;15.87;;;14.50;75.60;;;;;;5001543;28;20447;-86
2022/03/29 01:32:47;;;;;;;25.57;14.70;;;14.50;76.10;;;;;;5000003;28;20514;-80
2022/03/29 01:35:28;;;;;;;24.83;15.23;;;14.50;76.10;;;;;;5026189;28;20467;-85
2022/03/29 01:38:02;;;;;;;23.27;13.77;;;14.50;76.10;;;;;;5012340;28;20446;-85
2022/03/29 01:40:46;;;;;;;22.10;14.97;;;14.50;76.30;;;;;;5003890;28;20495;-85
2022/03/29 01:43:18;;;;;;;22.13;14.50;;;14.50;76.20;;;;;;5010340;28;20467;-84
2022/03/29 01:45:55;;;;;;;20.60;13.97;;;14.70;76.20;;;;;;5021525;28;20494;-86
2022/03/29 01:48:29;;;;;;;21.07;13.73;;;14.60;75.80;;;;;;5001528;28;20494;-86
2022/03/29 01:51:06;;;;;;;23.77;14.23;;;14.40;76.30;;;;;;4986367;28;20480;-81
2022/03/29 01:53:55;;;;;;;25.33;15.43;;;14.40;76.90;;;;;;4992873;28;20471;-83
2022/03/29 01:56:36;;;;;;;20.07;16.00;;;14.40;77.30;;;;;;4990968;28;20840;-83
2022/03/29 01:59:22;;;;;;;22.17;14.40;;;14.30;77.80;;;;;;5003175;28;20959;-83
2022/03/29 02:02:05;;;;;;;23.97;14.07;;;14.40;78.00;;;;;;4999611;28;20964;-83
2022/03/29 02:04:54;;;;;;;23.57;15.23;;;14.40;78.20;;;;;;5002784;28;20459;-83
2022/03/29 02:07:27;;;;;;;20.43;15.00;;;14.30;78.30;;;;;;4986720;28;20467;-83
2022/03/29 02:09:59;;;;;;;24.77;15.43;;;14.50;78.60;;;;;;4988489;28;20485;-84
2022/03/29 02:12:56;;;;;;;26.00;15.53;;;14.60;78.20;;;;;;4988161;28;20479;-84
2022/03/29 02:15:33;;;;;;;21.43;15.60;;;14.50;77.80;;;;;;4986042;28;20465;-80
2022/03/29 02:18:12;;;;;;;22.57;15.47;;;14.70;78.50;;;;;;4984108;28;21028;-83
2022/03/29 02:21:05;;;;;;;23.63;15.10;;;14.50;77.70;;;;;;4985674;28;20535;-82
2022/03/29 02:24:04;;;;;;;24.07;14.00;;;14.30;78.60;;;;;;4992675;28;20460;-83
2022/03/29 02:26:43;;;;;;;24.43;15.70;;;14.50;79.10;;;;;;4996393;28;20486;-84
2022/03/29 02:29:33;;;;;;;22.93;15.73;;;14.70;78.60;;;;;;5010143;28;20797;-84
2022/03/29 02:32:10;;;;;;;25.00;16.07;;;14.70;78.20;;;;;;4999756;28;20485;-81
2022/03/29 02:34:45;;;;;;;20.10;14.27;;;14.60;78.40;;;;;;4998581;28;20569;-83
2022/03/29 02:37:26;;;;;;;23.80;15.17;;;14.50;79.00;;;;;;5011589;28;20515;-85
2022/03/29 02:40:09;;;;;;;25.23;15.87;;;14.60;79.40;;;;;;5006943;28;20487;-83
2022/03/29 02:42:53;;;;;;;25.07;16.47;;;14.60;79.40;;;;;;5013500;28;20442;-82
2022/03/29 02:45:34;;;;;;;29.30;15.87;;;14.50;80.60;;;;;;5011773;28;20593;-83
2022/03/29 02:48:26;;;;;;;28.43;16.17;;;14.40;80.30;;;;;;5008454;28;20478;-84
2022/03/29 02:51:07;;;;;;;22.97;14.13;;;14.40;81.10;;;;;;5011878;28;20529;-86
2022/03/29 02:53:42;;;;;;;20.47;15.00;;;14.20;81.50;;;;;;5012820;28;20477;-86
2022/03/29 02:56:39;;;;;;;21.63;16.30;;;14.30;82.20;;;;;;5013966;28;20454;-85
2022/03/29 02:59:17;;;;;;;27.50;16.13;;;14.10;82.80;;;;;;5027315;28;20461;-86
2022/03/29 03:01:50;;;;;;;22.10;15.50;;;14.00;83.70;;;;;;5011032;28;20451;-87
2022/03/29 03:04:36;;;;;;;22.40;15.17;;;13.90;84.10;;;;;;5006191;28;20490;-85
2022/03/29 03:07:17;;;;;;;18.30;15.17;;;13.90;84.20;;;;;;5023337;28;20451;-87
2022/03/29 03:09:57;;;;;;;24.10;16.00;;;14.00;84.00;;;;;;5017862;28;20483;-87
2022/03/29 03:12:45;;;;;;;20.73;16.73;;;14.00;83.50;;;;;;4992762;28;20925;-84
2022/03/29 03:15:30;;;;;;;24.80;17.03;;;14.30;82.30;;;;;;4987670;28;20590;-83
2022/03/29 03:18:05;;;;;;;32.50;17.17;;;14.20;81.90;;;;;;4991922;28;20505;-86
2022/03/29 03:20:48;;;;;;;23.20;16.10;;;14.20;82.40;;;;;;4996633;28;20574;-84
2022/03/29 03:23:22;;;;;;;25.47;16.60;;;14.20;82.40;;;;;;5005881;28;20956;-83
2022/03/29 03:26:05;;;;;;;20.70;15.57;;;14.20;82.10;;;;;;5001827;28;20494;-84
2022/03/29 03:28:49;;;;;;;24.80;16.47;;;14.20;81.90;;;;;;5001938;28;20604;-85
2022/03/29 03:31:34;;;;;;;23.37;16.30;;;14.30;82.80;;;;;;5007771;28;20504;-83
2022/03/29 03:34:12;;;;;;;24.53;17.23;;;14.50;81.80;;;;;;5020199;28;20467;-83
2022/03/29 03:36:57;;;;;;;25.53;16.07;;;14.40;82.00;;;;;;4996954;28;20455;-84
2022/03/29 03:39:44;;;;;;;24.43;17.90;;;14.20;82.60;;;;;;4997494;28;20869;-84
2022/03/29 03:42:25;;;;;;;21.60;16.20;;;14.10;83.50;;;;;;5005826;28;20469;-82
2022/03/29 03:45:07;;;;;;;23.87;15.97;;;14.00;83.70;;;;;;5006768;28;20537;-85
2022/03/29 03:48:10;;;;;;;24.47;17.27;;;14.00;84.50;;;;;;4986061;28;20542;-83
2022/03/29 03:50:43;;;;;;;23.80;16.50;;;14.10;83.60;;;;;;4978110;28;20462;-85
2022/03/29 03:53:24;;;;;;;25.33;18.10;;;14.20;83.60;;;;;;5016994;28;20498;-84
2022/03/29 03:56:01;;;;;;;25.53;17.13;;;14.10;83.50;;;;;;4993583;28;20731;-85
2022/03/29 03:58:37;;;;;;;25.40;17.90;;;14.10;82.80;;;;;;4991836;28;20462;-84
2022/03/29 04:01:29;;;;;;;27.83;17.60;;;13.80;83.70;;;;;;4987573;28;20466;-85
2022/03/29 04:04:19;;;;;;;23.73;15.93;;;13.70;84.50;;;;;;5005303;28;20506;-85
2022/03/29 04:07:03;;;;;;;25.17;17.23;;;13.90;84.80;;;;;;5011761;28;20455;-85
2022/03/29 04:09:42;;;;;;;21.73;15.87;;;13.70;85.00;;;;;;4991180;28;20458;-85
2022/03/29 04:12:53;;;;;;;24.93;17.63;;;13.70;85.60;;;;;;4990878;28;20467;-85
2022/03/29 04:15:32;;;;;;;23.27;15.97;;;13.70;86.00;;;;;;4978709;28;20517;-82
2022/03/29 04:18:15;;;;;;;22.10;16.30;;;13.60;86.40;;;;;;4989481;28;20949;-84
2022/03/29 04:21:01;;;;;;;27.60;18.30;;;13.90;86.00;;;;;;5008779;28;20490;-84
2022/03/29 04:23:57;;;;;;;28.07;17.90;;;13.80;85.20;;;;;;5005427;28;20458;-82
2022/03/29 04:26:33;;;;;;;24.80;16.47;;;13.80;85.90;;;;;;4989232;28;20478;-84
2022/03/29 04:29:11;;;;;;;31.40;19.07;;;13.90;85.90;;;;;;4988876;28;20589;-84
2022/03/29 04:32:06;;;;;;;23.83;16.33;;;13.80;85.70;;;;;;4987410;28;20467;-83
2022/03/29 04:34:40;;;;;;;25.50;17.10;;;13.70;86.40;;;;;;4987760;28;20491;-81
2022/03/29 04:37:28;;;;;;;23.03;16.10;;;13.70;86.70;;;;;;4986064;28;20463;-84
2022/03/29 04:40:24;;;;;;;24.33;17.50;;;13.90;86.20;;;;;;4985385;28;20537;-85
2022/03/29 04:43:00;;;;;;;27.27;17.73;;;13.70;86.30;;;;;;4987429;28;20469;-83
2022/03/29 04:45:38;;;;;;;26.07;17.63;;;13.70;86.80;;;;;;4990031;28;20467;-83
2022/03/29 04:51:11;;;;;;;23.40;16.20;;;13.50;87.30;;;;;;4989672;28;20477;-84
2022/03/29 04:53:42;;;;;;;30.20;18.57;;;13.40;88.00;;;;;;4983444;28;20487;-83
2022/03/29 04:56:21;;;;;;;23.33;18.07;;;13.60;88.70;;;;;;4998669;28;21004;-84
2022/03/29 04:59:20;;;;;;;25.53;17.40;;;13.60;88.20;;;;;;4983037;28;20447;-85
2022/03/29 05:02:11;;;;;;;26.70;17.50;;;13.70;88.20;;;;;;4995187;28;20471;-82
2022/03/29 05:04:54;;;;;;;;;;;;;;;;;;;;;
2022/03/29 05:07:37;;;;;;;29.10;19.20;;;13.70;87.40;;;;;;4988834;28;20451;-83
2022/03/29 05:10:34;;;;;;;21.57;16.07;;;13.70;86.80;;;;;;5000681;28;20451;-83
2022/03/29 05:13:12;;;;;;;27.30;17.60;;;13.60;87.30;;;;;;4985406;28;20486;-83
2022/03/29 05:15:54;;;;;;;23.47;16.17;;;13.40;88.30;;;;;;4987011;28;21842;-82
2022/03/29 05:18:28;;;;;;;24.33;17.10;;;13.40;88.90;;;;;;4986704;28;20451;-82
2022/03/29 05:21:15;;;;;;;23.53;16.43;;;13.40;88.70;;;;;;4986446;28;20551;-82
2022/03/29 05:24:18;;;;;;;21.60;16.60;;;13.30;89.00;;;;;;4989038;28;20462;-85
2022/03/29 05:27:07;;;;;;;24.10;16.73;;;13.30;89.80;;;;;;4988017;28;20451;-84
2022/03/29 05:29:39;;;;;;;21.50;16.87;;;13.30;89.10;;;;;;5000377;28;20427;-83
2022/03/29 05:32:25;;;;;;;27.40;19.30;;;13.20;89.60;;;;;;4989254;28;20479;-82
2022/03/29 05:35:00;;;;;;;22.20;16.70;;;13.40;89.80;;;;;;4983594;28;21050;-82
2022/03/29 05:37:39;;;;;;;28.17;18.40;;;13.40;89.40;;;;;;4984720;28;20450;-82
2022/03/29 05:40:34;;;;;;;25.23;17.00;;;13.20;90.00;;;;;;4984908;28;20466;-82
2022/03/29 05:43:17;;;;;;;26.33;17.93;;;13.30;89.80;;;;;;4986950;28;20463;-83
2022/03/29 05:48:52;;;;;;;23.57;17.97;;;13.30;89.70;;;;;;4993378;28;20446;-83
2022/03/29 05:51:31;;;;;;;28.77;18.03;;;13.30;89.60;;;;;;5008727;28;20516;-83
2022/03/29 05:54:18;;;;;;;26.47;17.83;;;13.20;89.90;;;;;;4984387;28;20486;-85
2022/03/29 06:00:14;;;;;;;24.03;18.00;;;13.20;90.30;;;;;;4978483;28;20993;-83
2022/03/29 06:03:04;;;;;;;27.83;18.17;;;13.50;89.00;;;;;;4983944;28;20606;-84
2022/03/29 06:05:42;;;;;;;26.23;17.63;;;13.60;88.70;;;;;;4993246;28;20478;-83
2022/03/29 06:08:27;;;;;;;25.80;18.07;;;13.50;89.20;;;;;;4984059;28;20546;-83
2022/03/29 06:11:07;;;;;;;30.50;19.40;;;13.50;88.90;;;;;;4982439;28;20470;-84
2022/03/29 06:13:56;;;;;;;30.50;19.10;;;13.40;89.10;;;;;;4984584;28;20488;-84
2022/03/29 06:16:44;;;;;;;31.77;19.30;;;13.30;89.20;;;;;;4994986;28;20553;-85
2022/03/29 06:19:30;;;;;;;27.67;18.97;;;13.20;90.00;;;;;;4985280;28;20489;-86
2022/03/29 06:22:16;;;;;;;30.67;19.17;;;13.10;90.40;;;;;;4983443;28;20470;-86
2022/03/29 06:25:08;;;;;;;29.43;17.20;;;13.30;90.30;;;;;;4982231;28;20459;-85
2022/03/29 06:27:54;;;;;;;32.87;17.93;;;13.20;90.10;;;;;;4964143;28;20458;-83
2022/03/29 06:30:24;;;;;;;26.87;18.83;;;13.00;90.60;;;;;;4979282;28;20463;-85
2022/03/29 06:33:12;;;;;;;30.30;19.47;;;13.00;90.80;;;;;;4977466;28;20485;-84
2022/03/29 06:36:17;;;;;;;28.57;19.47;;;13.10;90.70;;;;;;4949444;28;20909;-84
2022/03/29 06:42:35;;;;;;;25.57;17.43;;;13.60;89.50;;;;;;4964736;28;20612;-85
2022/03/29 06:45:31;;;;;;;26.50;17.80;;;13.60;89.30;;;;;;4946394;28;20912;-85
2022/03/29 06:48:41;;;;;;;30.07;19.07;;;13.40;89.60;;;;;;4949855;28;21772;-84
2022/03/29 06:51:20;;;;;;;29.60;19.40;;;13.40;90.10;;;;;;4933548;28;20487;-82
2022/03/29 06:54:17;;;;;;;26.53;18.20;;;13.30;90.20;;;;;;4952424;28;20475;-84
2022/03/29 06:57:28;;;;;;;30.23;19.77;;;13.30;90.30;;;;;;4958189;28;21004;-83
2022/03/29 07:00:28;;;;;;;25.80;18.70;;;13.70;90.30;;;;;;4955342;28;20463;-84
2022/03/29 07:03:10;;;;;;;30.20;19.90;;;13.90;89.30;;;;;;4959339;28;20462;-83
2022/03/29 07:05:48;;;;;;;29.60;19.83;;;13.70;89.30;;;;;;4952130;28;21043;-81
2022/03/29 07:08:30;;;;;;;25.60;17.73;;;13.40;90.20;;;;;;4955784;28;20503;-83
2022/03/29 07:11:21;;;;;;;24.83;17.20;;;13.40;90.70;;;;;;4959411;28;20467;-83
2022/03/29 07:14:07;;;;;;;30.77;19.83;;;13.40;90.80;;;;;;4974127;28;20549;-85
2022/03/29 07:16:45;;;;;;;23.10;18.27;;;13.50;90.70;;;;;;4973929;28;20542;-84
2022/03/29 07:19:31;;;;;;;27.13;19.73;;;13.50;90.50;;;;;;4975134;28;20455;-82
2022/03/29 07:22:24;;;;;;;26.07;18.70;;;13.70;90.40;;;;;;4988866;28;20463;-84
2022/03/29 07:24:57;;;;;;;27.23;19.70;;;13.80;89.80;;;;;;4977277;28;20494;-83
2022/03/29 07:27:37;;;;;;;26.97;19.43;;;14.00;89.80;;;;;;4976651;28;20461;-84
2022/03/29 07:30:43;;;;;;;31.77;20.00;;;14.20;88.20;;;;;;4974559;28;20474;-82
2022/03/29 07:33:31;;;;;;;27.07;19.40;;;14.00;87.80;;;;;;4970141;28;20479;-84
2022/03/29 07:36:08;;;;;;;30.57;20.13;;;14.10;87.80;;;;;;4976135;28;20479;-83
2022/03/29 07:38:59;;;;;;;27.47;19.13;;;14.10;86.80;;;;;;4985169;28;20547;-83
2022/03/29 07:41:43;;;;;;;27.40;19.53;;;14.00;87.50;;;;;;4987063;28;20502;-84
2022/03/29 07:44:21;;;;;;;28.90;18.90;;;14.00;88.10;;;;;;5004314;28;20482;-85
2022/03/29 07:47:00;;;;;;;26.17;19.60;;;14.20;86.90;;;;;;4993108;28;20466;-83
2022/03/29 07:49:49;;;;;;;26.00;19.17;;;14.30;86.10;;;;;;4975766;28;20459;-84
2022/03/29 07:52:50;;;;;;;28.20;20.40;;;14.60;85.60;;;;;;4983757;28;20853;-82
2022/03/29 07:55:23;;;;;;;24.80;19.17;;;14.50;84.20;;;;;;4983448;28;20467;-85
2022/03/29 07:58:17;;;;;;;29.33;19.50;;;14.60;84.90;;;;;;4994686;28;20473;-83
2022/03/29 08:01:02;;;;;;;26.63;18.90;;;14.80;83.40;;;;;;4983109;28;20459;-84
2022/03/29 08:03:49;;;;;;;27.33;20.27;;;15.40;82.20;;;;;;4980564;28;20471;-85
2022/03/29 08:07:09;;;;;;;26.20;18.97;;;15.50;79.50;;;;;;4978719;28;20489;-83
2022/03/29 08:09:52;;;;;;;24.57;18.53;;;15.70;79.30;;;;;;4986725;28;20446;-83
2022/03/29 08:12:46;;;;;;;27.67;19.50;;;16.20;76.20;;;;;;4992728;28;20536;-83
2022/03/29 08:15:24;;;;;;;25.87;18.40;;;16.10;75.80;;;;;;4983932;28;20498;-83
2022/03/29 08:18:06;;;;;;;29.00;19.33;;;16.50;75.00;;;;;;4980364;28;20513;-82
2022/03/29 08:20:43;;;;;;;27.00;20.97;;;16.90;73.70;;;;;;4980437;28;20463;-84
2022/03/29 08:23:26;;;;;;;30.27;19.70;;;17.00;72.50;;;;;;4979673;28;20464;-83
2022/03/29 08:26:37;;;;;;;26.70;19.63;;;16.60;72.30;;;;;;4980806;28;20541;-85
2022/03/29 08:29:11;;;;;;;33.10;18.97;;;16.40;73.80;;;;;;4981438;28;20936;-84
2022/03/29 08:31:53;;;;;;;27.87;21.40;;;16.20;74.40;;;;;;4996230;28;20517;-85
2022/03/29 08:34:40;;;;;;;25.50;20.30;;;16.10;73.90;;;;;;4984826;28;20493;-85
2022/03/29 08:37:23;;;;;;;28.73;19.20;;;15.90;74.00;;;;;;4978073;28;20471;-84
2022/03/29 08:39:56;;;;;;;25.97;18.97;;;15.70;74.00;;;;;;4983040;28;20459;-84
2022/03/29 08:42:37;;;;;;;21.93;18.27;;;15.30;75.20;;;;;;4984869;28;20463;-86
2022/03/29 08:45:09;;;;;;;23.37;16.90;;;15.10;76.90;;;;;;4984756;28;20485;-84
2022/03/29 08:47:51;;;;;;;21.20;15.77;;;15.10;76.60;;;;;;4986816;28;20447;-84
2022/03/29 08:50:40;;;;;;;22.23;16.20;;;15.10;75.60;;;;;;4976717;28;20454;-84
2022/03/29 08:53:34;;;;;;;20.20;18.10;;;15.20;75.50;;;;;;4937881;28;20490;-87
2022/03/29 08:56:11;;;;;;;22.03;16.07;;;15.10;75.30;;;;;;4987971;28;20471;-84
2022/03/29 08:58:52;;;;;;;24.23;17.77;;;15.10;75.50;;;;;;4984894;28;20578;-87
2022/03/29 09:01:53;;;;;;;20.77;16.47;;;14.80;76.40;;;;;;4987350;28;22128;-84
2022/03/29 09:04:35;;;;;;;20.10;16.47;;;15.10;76.40;;;;;;4981484;28;20467;-83
2022/03/29 09:07:09;;;;;;;21.30;16.97;;;15.30;75.00;;;;;;4981198;28;21018;-84
2022/03/29 09:09:54;;;;;;;22.60;16.43;;;15.50;74.50;;;;;;4986060;28;20482;-84
2022/03/29 09:12:32;;;;;;;33.27;19.10;;;15.50;73.90;;;;;;4983296;28;20490;-83
2022/03/29 09:15:06;;;;;;;21.70;17.43;;;15.60;73.70;;;;;;4987226;28;20493;-85
2022/03/29 09:18:07;;;;;;;20.90;17.27;;;15.60;74.00;;;;;;4984475;28;21703;-84
2022/03/29 09:20:35;;;;;;;19.80;15.20;;;15.50;73.20;;;;;;4989085;28;20497;-83
2022/03/29 09:23:24;;;;;;;21.70;17.07;;;15.30;74.10;;;;;;4981765;28;20451;-84
2022/03/29 09:25:56;;;;;;;20.90;16.70;;;15.50;73.40;;;;;;4985077;28;20491;-81
2022/03/29 09:28:32;;;;;;;22.37;17.37;;;15.40;73.90;;;;;;4987761;28;20459;-83
2022/03/29 09:31:04;;;;;;;23.43;17.70;;;15.30;74.20;;;;;;4991653;28;20466;-84
2022/03/29 09:33:36;;;;;;;23.67;17.40;;;15.20;75.00;;;;;;4990080;28;20498;-85
2022/03/29 09:36:07;;;;;;;28.00;19.67;;;15.70;74.10;;;;;;4986590;28;20474;-83
2022/03/29 09:38:44;;;;;;;26.33;18.53;;;15.90;73.30;;;;;;4985046;28;20499;-83
2022/03/29 09:41:36;;;;;;;24.33;18.20;;;16.10;72.20;;;;;;4974451;28;20463;-85
2022/03/29 09:44:11;;;;;;;21.60;17.10;;;15.90;71.80;;;;;;4988416;28;20550;-84
2022/03/29 09:47:04;;;;;;;19.63;17.20;;;16.10;71.70;;;;;;4987628;28;20525;-84
2022/03/29 09:49:54;;;;;;;21.60;16.47;;;16.60;70.60;;;;;;4985380;28;20541;-85
2022/03/29 09:52:31;;;;;;;22.07;16.53;;;16.80;69.20;;;;;;4984520;28;20461;-83
2022/03/29 09:55:15;;;;;;;21.70;17.10;;;16.90;68.20;;;;;;4983675;28;20501;-82
2022/03/29 09:57:51;;;;;;;23.60;17.07;;;16.90;67.70;;;;;;4984830;28;20486;-85
2022/03/29 10:00:29;;;;;;;19.50;16.33;;;16.90;67.40;;;;;;4983182;28;20455;-84
2022/03/29 10:03:09;;;;;;;25.03;17.63;;;17.50;66.10;;;;;;4984358;28;20471;-83
2022/03/29 10:05:42;;;;;;;19.23;16.30;;;17.40;65.80;;;;;;5003843;28;21247;-84
2022/03/29 10:11:22;;;;;;;19.00;16.83;;;18.50;61.90;;;;;;4988913;28;20469;-83
2022/03/29 10:13:53;;;;;;;20.57;17.70;;;18.10;61.60;;;;;;4991984;28;20475;-84
2022/03/29 10:16:30;;;;;;;19.53;14.73;;;17.60;62.50;;;;;;4989801;28;20825;-83
2022/03/29 10:19:00;;;;;;;22.03;17.83;;;18.10;62.40;;;;;;4991520;28;20567;-83
2022/03/29 10:21:32;;;;;;;18.87;15.97;;;18.20;60.70;;;;;;4990798;28;20552;-85
2022/03/29 10:24:01;;;;;;;18.40;16.50;;;18.10;60.00;;;;;;4988856;28;20595;-83
2022/03/29 10:26:36;;;;;;;25.63;15.47;;;17.40;61.20;;;;;;4984316;28;21051;-83
2022/03/29 10:29:17;;;;;;;20.67;15.63;;;17.00;61.60;;;;;;5002307;28;20502;-84
2022/03/29 10:32:01;;;;;;;16.27;14.60;;;17.00;63.20;;;;;;4994662;28;20468;-84
2022/03/29 10:35:08;;;;;;;15.20;13.13;;;17.50;62.50;;;;;;5007966;23;20491;-83
2022/03/29 10:37:59;;;;;;;18.47;14.27;;;18.30;59.80;;;;;;5003945;28;20465;-82
2022/03/29 10:40:46;;;;;;;16.20;13.90;;;18.90;57.50;;;;;;5007280;28;20434;-83
2022/03/29 10:43:53;;;;;;;16.87;14.00;;;19.20;56.70;;;;;;5011891;28;20468;-85
2022/03/29 10:46:46;;;;;;;13.70;12.30;;;19.30;55.70;;;;;;5000202;28;20490;-82
2022/03/29 10:49:22;;;;;;;15.23;13.30;;;19.40;55.80;;;;;;5019015;28;20461;-84
2022/03/29 10:52:06;;;;;;;15.03;13.40;;;20.00;54.40;;;;;;5023997;28;20458;-84
2022/03/29 10:54:43;;;;;;;13.80;12.00;;;19.70;54.60;;;;;;5030010;28;20523;-86
2022/03/29 10:57:31;;;;;;;14.87;13.37;;;19.60;54.30;;;;;;5015969;28;20990;-87
2022/03/29 11:00:13;;;;;;;13.67;11.93;;;20.10;52.90;;;;;;5026643;28;20476;-84
2022/03/29 11:03:14;;;;;;;13.37;12.03;;;19.60;52.90;;;;;;5017523;28;20463;-85
2022/03/29 11:06:12;;;;;;;13.83;12.43;;;20.10;53.00;;;;;;5019460;28;20468;-84
2022/03/29 11:08:56;;;;;;;13.17;11.77;;;20.40;52.20;;;;;;5028798;28;20573;-85
2022/03/29 11:11:46;;;;;;;14.60;13.20;;;19.70;52.40;;;;;;5046519;28;20458;-87
2022/03/29 11:14:33;;;;;;;12.47;10.97;;;19.40;53.10;;;;;;5026411;28;20490;-84
2022/03/29 11:17:09;;;;;;;12.57;11.47;;;19.70;53.40;;;;;;5024846;28;20455;-84
2022/03/29 11:19:53;;;;;;;13.20;11.90;;;20.30;52.00;;;;;;5018068;28;20458;-87
2022/03/29 11:22:31;;;;;;;11.80;10.27;;;20.50;52.10;;;;;;5004274;28;20458;-84
2022/03/29 11:25:05;;;;;;;11.50;10.30;;;21.50;51.00;;;;;;5000152;28;20466;-85
2022/03/29 11:27:41;;;;;;;11.27;10.10;;;21.60;48.60;;;;;;5001648;28;20503;-81
2022/03/29 11:30:18;;;;;;;10.03;9.03;;;21.30;48.40;;;;;;4989774;28;20539;-84
2022/03/29 11:32:55;;;;;;;13.10;10.30;;;20.90;49.60;;;;;;4983141;28;20467;-85
2022/03/29 11:35:26;;;;;;;11.47;10.47;;;21.00;50.20;;;;;;5006242;28;20493;-83
2022/03/29 11:38:16;;;;;;;10.93;9.90;;;21.10;50.40;;;;;;5008465;28;20531;-84
2022/03/29 11:40:49;;;;;;;11.30;10.20;;;21.20;49.50;;;;;;5005665;28;20465;-85
2022/03/29 11:43:27;;;;;;;11.80;10.70;;;21.40;49.20;;;;;;5004573;28;20576;-84
2022/03/29 11:46:01;;;;;;;11.90;10.20;;;21.30;49.50;;;;;;5005495;28;20470;-85
2022/03/29 11:48:28;;;;;;;12.10;10.13;;;21.00;49.80;;;;;;5008807;28;20545;-84
2022/03/29 11:51:02;;;;;;;12.50;10.93;;;20.40;49.80;;;;;;5008103;28;20462;-84
2022/03/29 11:53:46;;;;;;;12.20;9.47;;;20.00;50.90;;;;;;5008079;28;20528;-84
2022/03/29 11:56:19;;;;;;;9.90;9.00;;;20.10;51.60;;;;;;5009182;28;20488;-86
2022/03/29 11:59:17;;;;;;;11.13;10.03;;;20.50;51.00;;;;;;5005732;28;20619;-85
2022/03/29 12:01:47;;;;;;;13.13;10.50;;;21.70;50.50;;;;;;5011900;28;20466;-84
2022/03/29 12:04:20;;;;;;;11.20;9.90;;;22.00;48.70;;;;;;5008706;28;20462;-85
2022/03/29 12:07:02;;;;;;;10.43;9.50;;;22.00;48.60;;;;;;5011289;28;20482;-85
2022/03/29 12:09:32;;;;;;;9.90;8.90;;;22.00;48.00;;;;;;5006680;28;20510;-85
2022/03/29 12:12:05;;;;;;;11.30;9.37;;;21.50;48.60;;;;;;5009271;28;20477;-85
2022/03/29 12:14:42;;;;;;;12.43;11.00;;;21.40;49.60;;;;;;5011940;28;20575;-86
2022/03/29 12:17:14;;;;;;;9.40;8.40;;;21.30;49.70;;;;;;5006309;28;20496;-84
2022/03/29 12:19:49;;;;;;;8.23;7.43;;;21.10;50.20;;;;;;5006236;28;20468;-86
2022/03/29 12:22:35;;;;;;;9.17;8.37;;;21.10;50.00;;;;;;5000487;28;20558;-84
2022/03/29 12:25:09;;;;;;;11.17;9.53;;;20.80;49.40;;;;;;4999589;28;20494;-84
2022/03/29 12:27:50;;;;;;;10.23;9.23;;;20.00;50.40;;;;;;5002262;28;21705;-83
2022/03/29 12:30:22;;;;;;;9.80;8.50;;;20.40;51.00;;;;;;5001766;28;20473;-82
2022/03/29 12:32:52;;;;;;;10.13;9.13;;;20.00;51.10;;;;;;5019756;28;20469;-85
2022/03/29 12:35:30;;;;;;;9.73;8.37;;;20.00;51.30;;;;;;5000554;28;20535;-83
2022/03/29 12:38:09;;;;;;;10.77;9.27;;;20.10;51.20;;;;;;4999957;28;20452;-84
2022/03/29 12:40:56;;;;;;;12.33;10.60;;;20.10;51.30;;;;;;5008478;28;21060;-83
2022/03/29 12:43:35;;;;;;;12.17;10.97;;;20.10;51.20;;;;;;5004169;28;20469;-82
2022/03/29 12:46:15;;;;;;;12.43;9.60;;;20.10;50.90;;;;;;5005673;28;20896;-83
2022/03/29 12:48:53;;;;;;;13.70;11.50;;;20.20;51.10;;;;;;5007624;28;20469;-84
2022/03/29 12:51:31;;;;;;;12.33;9.50;;;19.80;51.10;;;;;;5006969;28;20473;-85
2022/03/29 12:54:09;;;;;;;11.90;10.43;;;19.40;51.80;;;;;;5005293;28;20453;-86
2022/03/29 12:56:47;;;;;;;11.67;10.37;;;19.80;51.60;;;;;;5005057;28;20494;-85
2022/03/29 12:59:35;;;;;;;11.60;10.10;;;20.00;51.20;;;;;;5019168;28;20465;-82
2022/03/29 13:02:14;;;;;;;10.80;9.70;;;20.00;51.10;;;;;;5001926;28;20462;-87
2022/03/29 13:05:01;;;;;;;11.33;9.73;;;20.10;50.30;;;;;;5006681;28;20450;-85
2022/03/29 13:07:41;;;;;;;10.90;9.80;;;20.00;50.00;;;;;;5003655;28;20466;-83
2022/03/29 13:10:30;;;;;;;10.47;9.47;;;19.60;50.20;;;;;;5019366;28;21148;-86
2022/03/29 13:13:06;;;;;;;11.20;9.00;;;19.30;51.00;;;;;;5004525;28;20474;-85
2022/03/29 13:15:39;;;;;;;25.07;19.83;;;19.50;51.50;;;;;;5004615;28;20490;-83
2022/03/29 13:18:25;;;;;;;33.23;23.27;;;20.10;53.50;;;;;;5005427;28;20499;-83
2022/03/29 13:21:27;;;;;;;31.00;24.30;;;20.10;55.50;;;;;;5013713;28;20453;-84
2022/03/29 13:24:04;;;;;;;28.53;22.77;;;20.40;55.40;;;;;;5004754;28;20533;-85
2022/03/29 13:26:35;;;;;;;31.57;25.03;;;20.50;55.20;;;;;;4996675;28;20847;-84
2022/03/29 13:29:10;;;;;;;33.87;25.00;;;20.30;55.90;;;;;;5012825;28;20525;-85
2022/03/29 13:31:49;;;;;;;30.03;24.70;;;20.10;55.90;;;;;;4999123;28;20461;-83
2022/03/29 13:34:20;;;;;;;27.40;24.40;;;19.60;56.30;;;;;;5001659;28;20468;-86
2022/03/29 13:36:57;;;;;;;29.80;24.63;;;19.60;56.60;;;;;;5030290;28;20478;-85
2022/03/29 13:39:38;;;;;;;32.80;25.17;;;19.60;56.60;;;;;;5005943;28;20461;-84
2022/03/29 13:42:10;;;;;;;29.87;24.17;;;19.50;57.00;;;;;;4999263;28;20439;-84
2022/03/29 13:44:42;;;;;;;29.87;24.57;;;19.60;57.30;;;;;;5001879;28;20467;-84
2022/03/29 13:47:21;;;;;;;29.27;24.00;;;19.60;57.00;;;;;;4997264;28;20466;-83
2022/03/29 13:50:00;;;;;;;30.50;25.73;;;19.40;57.70;;;;;;5011476;28;20454;-84
2022/03/29 13:52:34;;;;;;;28.73;25.60;;;19.30;58.20;;;;;;5029910;28;20455;-82
2022/03/29 13:55:04;;;;;;;32.33;26.97;;;19.20;58.40;;;;;;5001584;28;20996;-83
2022/03/29 13:57:46;;;;;;;36.07;25.47;;;19.30;58.70;;;;;;4997996;28;20493;-82
2022/03/29 14:00:25;;;;;;;26.50;23.40;;;19.70;57.80;;;;;;5009032;28;20463;-83
2022/03/29 14:03:04;;;;;;;31.33;25.67;;;19.40;57.60;;;;;;4997726;28;20462;-83